createdAt,value
2019-03-30T00:00:47.747Z,99.90
2019-03-30T00:03:17.446Z,99.90
2019-03-30T00:05:46.733Z,99.90
2019-03-30T00:08:16.038Z,99.90
2019-03-30T00:10:45.341Z,99.90
2019-03-30T00:13:14.629Z,99.90
2019-03-30T00:15:43.938Z,99.90
2019-03-30T00:18:13.213Z,99.90
2019-03-30T00:20:42.827Z,99.90
2019-03-30T00:23:12.124Z,99.90
2019-03-30T00:25:41.788Z,99.90
2019-03-30T00:28:11.162Z,99.90
2019-03-30T00:30:40.522Z,99.90
2019-03-30T00:33:10.010Z,99.90
2019-03-30T00:35:39.322Z,99.90
2019-03-30T00:38:08.783Z,99.90
2019-03-30T00:40:38.057Z,99.90
2019-03-30T00:43:07.338Z,99.90
2019-03-30T00:45:36.680Z,99.90
2019-03-30T00:48:06.012Z,99.90
2019-03-30T00:50:35.314Z,99.90
2019-03-30T00:53:05.763Z,99.90
2019-03-30T00:55:35.069Z,99.90
2019-03-30T00:58:04.444Z,99.90
2019-03-30T01:00:34.030Z,99.90
2019-03-30T01:03:03.386Z,99.90
2019-03-30T01:05:32.718Z,99.90
2019-03-30T01:08:02.039Z,99.90
2019-03-30T01:10:31.314Z,99.90
2019-03-30T01:13:00.583Z,99.90
2019-03-30T01:15:29.937Z,99.90
2019-03-30T01:17:59.226Z,99.90
2019-03-30T01:20:28.498Z,99.90
2019-03-30T01:22:57.774Z,99.90
2019-03-30T01:25:28.858Z,99.90
2019-03-30T01:27:58.515Z,99.90
2019-03-30T01:30:27.971Z,99.90
2019-03-30T01:32:57.246Z,99.90
2019-03-30T01:35:26.640Z,99.90
2019-03-30T01:37:56.113Z,99.90
2019-03-30T01:40:25.406Z,99.90
2019-03-30T01:42:54.766Z,99.90
2019-03-30T01:45:24.126Z,99.90
2019-03-30T01:47:53.409Z,99.90
2019-03-30T01:50:22.700Z,99.90
2019-03-30T01:52:52.012Z,99.90
2019-03-30T01:55:21.368Z,99.90
2019-03-30T01:57:50.921Z,99.90
2019-03-30T02:00:20.236Z,99.90
2019-03-30T02:02:49.585Z,99.90
2019-03-30T02:05:19.138Z,99.90
2019-03-30T02:07:48.430Z,99.90
2019-03-30T02:10:36.740Z,99.90
2019-03-30T02:13:07.908Z,99.90
2019-03-30T02:15:37.206Z,99.90
2019-03-30T02:18:06.579Z,99.90
2019-03-30T02:20:39.838Z,99.90
2019-03-30T02:23:09.298Z,99.90
2019-03-30T02:25:38.767Z,99.90
2019-03-30T02:28:08.781Z,99.90
2019-03-30T02:30:38.777Z,99.90
2019-03-30T02:33:08.300Z,99.90
2019-03-30T02:35:37.665Z,99.90
2019-03-30T02:38:07.039Z,99.90
2019-03-30T02:40:36.347Z,99.90
2019-03-30T02:43:06.160Z,99.90
2019-03-30T02:45:35.735Z,99.90
2019-03-30T02:48:05.377Z,99.90
2019-03-30T02:50:48.092Z,99.90
2019-03-30T02:53:05.991Z,99.90
2019-03-30T02:55:35.263Z,99.90
2019-03-30T02:58:04.626Z,99.90
2019-03-30T03:00:34.266Z,99.90
2019-03-30T03:03:03.836Z,99.90
2019-03-30T03:05:33.186Z,99.90
2019-03-30T03:08:02.471Z,99.90
2019-03-30T03:10:31.957Z,99.90
2019-03-30T03:13:01.240Z,99.90
2019-03-30T03:15:30.555Z,99.90
2019-03-30T03:17:59.841Z,99.90
2019-03-30T03:20:29.115Z,99.90
2019-03-30T03:22:58.470Z,99.90
2019-03-30T03:25:27.739Z,99.90
2019-03-30T03:27:57.019Z,99.90
2019-03-30T03:30:26.497Z,99.90
2019-03-30T03:32:55.767Z,99.90
2019-03-30T03:35:25.029Z,99.90
2019-03-30T03:37:54.395Z,99.90
2019-03-30T03:40:23.679Z,99.90
2019-03-30T03:42:53.115Z,99.90
2019-03-30T03:45:22.486Z,99.90
2019-03-30T03:47:51.806Z,99.90
2019-03-30T03:50:51.938Z,99.90
2019-03-30T03:53:23.474Z,99.90
2019-03-30T03:55:53.341Z,99.90
2019-03-30T03:58:25.903Z,99.90
2019-03-30T04:00:58.046Z,99.90
2019-03-30T04:03:32.375Z,99.90
2019-03-30T04:06:05.291Z,99.90
2019-03-30T04:08:35.466Z,99.90
2019-03-30T04:11:05.019Z,99.90
2019-03-30T04:13:34.910Z,99.90
2019-03-30T04:16:04.260Z,99.90
2019-03-30T04:18:33.539Z,99.90
2019-03-30T04:21:02.815Z,99.90
2019-03-30T04:23:32.102Z,99.90
2019-03-30T04:26:01.402Z,99.90
2019-03-30T04:28:30.812Z,99.90
2019-03-30T04:31:00.409Z,99.90
2019-03-30T04:33:29.700Z,99.90
2019-03-30T04:35:59.075Z,99.90
2019-03-30T04:38:28.434Z,99.90
2019-03-30T04:40:58.686Z,99.90
2019-03-30T04:43:27.962Z,99.90
2019-03-30T04:45:57.230Z,99.90
2019-03-30T04:48:29.345Z,99.90
2019-03-30T04:50:57.546Z,99.90
2019-03-30T04:53:26.853Z,99.90
2019-03-30T04:55:56.146Z,99.90
2019-03-30T04:58:25.434Z,99.90
2019-03-30T05:00:54.709Z,99.90
2019-03-30T05:03:24.127Z,99.90
2019-03-30T05:05:53.407Z,99.90
2019-03-30T05:08:22.695Z,99.90
2019-03-30T05:10:52.067Z,99.90
2019-03-30T05:13:21.357Z,99.90
2019-03-30T05:15:50.650Z,99.90
2019-03-30T05:18:19.994Z,99.90
2019-03-30T05:20:49.348Z,99.90
2019-03-30T05:23:18.640Z,99.90
2019-03-30T05:25:47.921Z,99.90
2019-03-30T05:28:17.353Z,99.90
2019-03-30T05:30:46.619Z,99.90
2019-03-30T05:33:15.903Z,99.90
2019-03-30T05:35:45.202Z,99.90
2019-03-30T05:38:14.597Z,99.90
2019-03-30T05:40:45.000Z,99.90
2019-03-30T05:43:14.286Z,99.90
2019-03-30T05:45:43.555Z,99.90
2019-03-30T05:48:12.854Z,99.90
2019-03-30T05:50:42.137Z,99.90
2019-03-30T05:53:11.445Z,99.90
2019-03-30T05:55:40.739Z,99.90
2019-03-30T05:58:10.041Z,99.90
2019-03-30T06:00:39.326Z,99.90
2019-03-30T06:03:08.622Z,99.90
2019-03-30T06:05:37.907Z,99.90
2019-03-30T06:08:07.894Z,99.90
2019-03-30T06:10:38.726Z,99.90
2019-03-30T06:13:08.303Z,99.90
2019-03-30T06:15:37.585Z,99.90
2019-03-30T06:18:06.890Z,99.90
2019-03-30T06:20:36.222Z,99.90
2019-03-30T06:23:05.617Z,99.90
2019-03-30T06:25:34.923Z,99.90
2019-03-30T06:28:04.307Z,99.90
2019-03-30T06:30:33.685Z,99.90
2019-03-30T06:33:03.004Z,99.90
2019-03-30T06:35:32.322Z,99.90
2019-03-30T06:38:01.622Z,98.50
2019-03-30T06:40:30.915Z,98.30
2019-03-30T06:43:00.278Z,96.80
2019-03-30T06:45:29.587Z,95.90
2019-03-30T06:47:58.898Z,96.00
2019-03-30T06:50:28.329Z,93.90
2019-03-30T06:52:58.833Z,94.50
2019-03-30T06:55:28.554Z,93.00
2019-03-30T06:57:57.864Z,93.90
2019-03-30T07:00:37.122Z,95.00
2019-03-30T07:03:07.974Z,92.40
2019-03-30T07:05:40.506Z,91.20
2019-03-30T07:08:12.535Z,90.20
2019-03-30T07:10:43.650Z,90.00
2019-03-30T07:13:13.906Z,85.10
2019-03-30T07:15:46.702Z,84.50
2019-03-30T07:18:17.178Z,82.90
2019-03-30T07:20:46.548Z,82.90
2019-03-30T07:23:15.908Z,85.30
2019-03-30T07:25:45.212Z,86.30
2019-03-30T07:28:14.659Z,89.10
2019-03-30T07:30:43.966Z,89.30
2019-03-30T07:33:13.258Z,89.10
2019-03-30T07:35:42.599Z,88.00
2019-03-30T07:38:11.960Z,86.00
2019-03-30T07:40:41.334Z,85.50
2019-03-30T07:43:10.612Z,83.40
2019-03-30T07:45:39.997Z,82.30
2019-03-30T07:48:09.525Z,84.60
2019-03-30T07:50:38.926Z,80.90
2019-03-30T07:53:08.230Z,85.50
2019-03-30T07:55:37.515Z,83.60
2019-03-30T07:58:06.866Z,79.40
2019-03-30T08:00:36.788Z,79.60
2019-03-30T08:03:06.238Z,79.60
2019-03-30T08:05:35.534Z,73.70
2019-03-30T08:08:04.913Z,75.10
2019-03-30T08:10:34.248Z,75.60
2019-03-30T08:13:03.548Z,77.30
2019-03-30T08:15:32.932Z,80.90
2019-03-30T08:18:02.252Z,78.20
2019-03-30T08:20:31.565Z,75.00
2019-03-30T08:23:00.929Z,79.00
2019-03-30T08:25:31.533Z,75.90
2019-03-30T08:28:00.885Z,74.70
2019-03-30T08:30:30.746Z,74.70
2019-03-30T08:33:01.346Z,74.50
2019-03-30T08:35:31.044Z,74.60
2019-03-30T08:38:02.848Z,75.70
2019-03-30T08:40:33.202Z,73.70
2019-03-30T08:43:02.955Z,69.60
2019-03-30T08:45:32.644Z,67.70
2019-03-30T08:48:02.423Z,63.30
2019-03-30T08:50:31.970Z,66.40
2019-03-30T08:53:01.609Z,59.50
2019-03-30T08:55:31.079Z,59.60
2019-03-30T08:58:04.509Z,56.70
2019-03-30T09:00:41.818Z,54.80
2019-03-30T09:03:13.298Z,52.20
2019-03-30T09:05:42.922Z,51.30
2019-03-30T09:08:12.745Z,53.40
2019-03-30T09:10:42.361Z,53.50
2019-03-30T09:13:12.074Z,53.40
2019-03-30T09:15:41.767Z,50.80
2019-03-30T09:18:12.082Z,50.10
2019-03-30T09:20:42.212Z,50.50
2019-03-30T09:23:13.091Z,48.20
2019-03-30T09:25:45.080Z,48.00
2019-03-30T09:28:15.734Z,50.70
2019-03-30T09:31:04.379Z,48.20
2019-03-30T09:33:34.928Z,48.20
2019-03-30T09:36:07.787Z,47.30
2019-03-30T10:21:08.783Z,42.70
2019-03-30T10:23:38.074Z,45.90
2019-03-30T10:26:07.418Z,42.90
2019-03-30T10:28:37.008Z,43.50
2019-03-30T10:31:06.309Z,41.50
2019-03-30T10:33:42.139Z,43.40
2019-03-30T10:36:13.485Z,43.60
2019-03-30T10:38:42.890Z,42.80
2019-03-30T10:41:12.393Z,40.20
2019-03-30T10:43:41.818Z,39.80
2019-03-30T10:46:11.240Z,41.10
2019-03-30T10:48:41.566Z,40.40
2019-03-30T10:51:10.904Z,42.00
2019-03-30T10:53:40.300Z,41.20
2019-03-30T10:56:09.594Z,40.30
2019-03-30T10:58:39.590Z,41.30
2019-03-30T11:01:09.462Z,38.20
2019-03-30T11:03:39.000Z,38.50
2019-03-30T11:06:09.360Z,40.40
2019-03-30T11:08:39.295Z,41.60
2019-03-30T11:11:08.858Z,41.30
2019-03-30T11:13:38.650Z,39.50
2019-03-30T11:16:08.503Z,42.60
2019-03-30T11:18:38.461Z,40.70
2019-03-30T11:21:08.073Z,39.90
2019-03-30T11:23:38.972Z,39.60
2019-03-30T11:26:08.875Z,36.80
2019-03-30T11:28:39.998Z,37.30
2019-03-30T11:31:09.433Z,37.60
2019-03-30T11:33:38.706Z,36.60
2019-03-30T11:36:08.084Z,40.60
2019-03-30T11:38:37.356Z,38.20
2019-03-30T11:41:07.592Z,36.20
2019-03-30T11:43:36.871Z,35.20
2019-03-30T11:46:06.339Z,35.90
2019-03-30T11:48:37.521Z,35.40
2019-03-30T11:51:06.821Z,36.70
2019-03-30T11:53:36.170Z,36.20
2019-03-30T11:56:05.783Z,37.40
2019-03-30T11:58:35.083Z,37.50
2019-03-30T12:01:04.566Z,34.70
2019-03-30T12:03:33.922Z,34.50
2019-03-30T12:06:03.274Z,33.40
2019-03-30T12:08:34.806Z,33.40
2019-03-30T12:11:04.277Z,34.70
2019-03-30T12:13:33.561Z,35.10
2019-03-30T12:16:02.929Z,34.00
2019-03-30T12:18:32.316Z,33.60
2019-03-30T12:21:01.622Z,35.20
2019-03-30T12:23:30.913Z,34.90
2019-03-30T12:26:00.211Z,33.70
2019-03-30T12:28:29.598Z,32.60
2019-03-30T12:30:58.910Z,32.60
2019-03-30T12:33:28.310Z,33.70
2019-03-30T12:35:57.777Z,33.50
2019-03-30T12:38:27.179Z,33.10
2019-03-30T12:40:56.555Z,31.50
2019-03-30T12:43:26.845Z,30.10
2019-03-30T12:45:56.142Z,30.00
2019-03-30T12:48:25.533Z,30.60
2019-03-30T12:50:54.894Z,28.70
2019-03-30T12:53:24.240Z,28.30
2019-03-30T12:55:53.637Z,28.50
2019-03-30T12:58:22.922Z,29.40
2019-03-30T13:00:52.213Z,29.20
2019-03-30T13:03:21.523Z,28.60
2019-03-30T13:05:50.874Z,29.10
2019-03-30T13:08:20.175Z,28.10
2019-03-30T13:10:49.458Z,28.30
2019-03-30T13:13:18.858Z,28.20
2019-03-30T13:15:48.250Z,27.50
2019-03-30T13:18:17.599Z,28.60
2019-03-30T13:20:46.951Z,29.70
2019-03-30T13:23:16.238Z,29.60
2019-03-30T13:25:45.632Z,30.40
2019-03-30T13:28:15.273Z,30.10
2019-03-30T13:30:45.157Z,30.20
2019-03-30T13:33:14.716Z,30.00
2019-03-30T13:35:46.446Z,31.50
2019-03-30T13:38:15.867Z,30.20
2019-03-30T13:40:45.162Z,29.80
2019-03-30T13:43:14.642Z,29.70
2019-03-30T13:45:44.046Z,30.60
2019-03-30T13:48:13.562Z,32.90
2019-03-30T13:50:42.856Z,32.70
2019-03-30T13:53:12.171Z,32.20
2019-03-30T13:55:41.465Z,32.80
2019-03-30T13:58:10.768Z,34.00
2019-03-30T14:00:40.182Z,33.60
2019-03-30T14:03:09.517Z,31.40
2019-03-30T14:05:38.871Z,33.20
2019-03-30T14:08:08.310Z,34.50
2019-03-30T14:10:39.102Z,32.30
2019-03-30T14:13:09.588Z,32.70
2019-03-30T14:15:39.000Z,33.40
2019-03-30T14:18:08.808Z,33.30
2019-03-30T14:20:38.455Z,32.20
2019-03-30T14:23:07.851Z,32.30
2019-03-30T14:25:37.310Z,30.10
2019-03-30T14:28:06.715Z,32.70
2019-03-30T14:30:36.171Z,32.20
2019-03-30T14:33:06.034Z,36.20
2019-03-30T14:35:35.867Z,35.40
2019-03-30T14:38:05.701Z,33.70
2019-03-30T14:40:35.383Z,34.60
2019-03-30T14:43:05.102Z,35.80
2019-03-30T14:45:34.851Z,34.50
2019-03-30T14:48:05.973Z,34.70
2019-03-30T14:50:35.683Z,34.40
2019-03-30T14:53:05.579Z,34.20
2019-03-30T14:55:35.294Z,35.80
2019-03-30T14:58:04.659Z,36.30
2019-03-30T15:00:34.080Z,35.00
2019-03-30T15:03:03.589Z,34.70
2019-03-30T15:05:32.845Z,34.70
2019-03-30T15:08:02.144Z,33.90
2019-03-30T15:10:31.440Z,34.70
2019-03-30T15:13:01.155Z,36.90
2019-03-30T15:15:33.208Z,36.40
2019-03-30T15:18:02.558Z,37.30
2019-03-30T15:20:31.845Z,35.70
2019-03-30T15:23:01.142Z,35.70
2019-03-30T15:25:30.448Z,34.90
2019-03-30T15:27:59.727Z,34.50
2019-03-30T15:30:29.014Z,35.90
2019-03-30T15:32:58.381Z,36.60
2019-03-30T15:35:27.750Z,35.90
2019-03-30T15:37:57.043Z,35.70
2019-03-30T15:40:26.326Z,36.00
2019-03-30T15:42:55.884Z,33.50
2019-03-30T15:45:25.348Z,35.80
2019-03-30T15:47:54.641Z,34.90
2019-03-30T15:50:23.931Z,35.70
2019-03-30T15:52:53.251Z,37.40
2019-03-30T15:55:22.558Z,36.10
2019-03-30T15:57:51.853Z,37.30
2019-03-30T16:00:21.302Z,35.60
2019-03-30T16:02:50.743Z,36.50
2019-03-30T16:05:20.323Z,36.40
2019-03-30T16:07:49.608Z,35.60
2019-03-30T16:10:18.987Z,35.40
2019-03-30T16:12:48.254Z,33.90
2019-03-30T16:15:17.618Z,34.60
2019-03-30T16:17:46.907Z,34.90
2019-03-30T16:20:17.020Z,37.10
2019-03-30T16:22:46.683Z,37.30
2019-03-30T16:25:17.343Z,35.60
2019-03-30T16:27:51.712Z,36.90
2019-03-30T16:30:21.598Z,36.70
2019-03-30T16:32:50.878Z,37.00
2019-03-30T16:35:27.331Z,35.70
2019-03-30T16:37:56.627Z,36.70
2019-03-30T16:40:25.918Z,37.60
2019-03-30T16:42:55.319Z,38.00
2019-03-30T16:45:24.614Z,38.00
2019-03-30T16:47:53.906Z,37.60
2019-03-30T16:50:23.265Z,38.20
2019-03-30T16:52:52.616Z,38.80
2019-03-30T16:55:21.932Z,39.30
2019-03-30T16:57:51.755Z,39.30
2019-03-30T17:00:21.046Z,39.50
2019-03-30T17:02:50.339Z,39.60
2019-03-30T17:05:21.890Z,39.90
2019-03-30T17:07:51.170Z,40.50
2019-03-30T17:10:20.470Z,40.40
2019-03-30T17:12:49.753Z,41.00
2019-03-30T17:15:19.058Z,40.90
2019-03-30T17:17:48.329Z,41.20
2019-03-30T17:20:17.885Z,41.50
2019-03-30T17:22:49.380Z,42.40
2019-03-30T17:25:21.028Z,42.80
2019-03-30T17:27:58.077Z,42.90
2019-03-30T17:30:21.390Z,43.20
2019-03-30T17:32:50.710Z,43.10
2019-03-30T17:35:20.848Z,44.20
2019-03-30T17:37:50.187Z,44.30
2019-03-30T17:40:19.473Z,44.30
2019-03-30T17:42:48.768Z,44.50
2019-03-30T17:45:18.306Z,45.20
2019-03-30T17:47:47.599Z,45.20
2019-03-30T17:50:17.042Z,45.80
2019-03-30T17:52:46.338Z,46.00
2019-03-30T17:55:15.773Z,46.30
2019-03-30T17:57:45.137Z,46.50
2019-03-30T18:00:17.523Z,46.80
2019-03-30T18:02:46.951Z,47.60
2019-03-30T18:05:16.323Z,48.60
2019-03-30T18:07:45.800Z,49.00
2019-03-30T18:10:15.438Z,49.60
2019-03-30T18:12:44.741Z,50.20
2019-03-30T18:15:15.978Z,50.40
2019-03-30T18:17:45.368Z,51.00
2019-03-30T18:20:15.134Z,51.30
2019-03-30T18:22:44.427Z,52.40
2019-03-30T18:25:14.094Z,52.20
2019-03-30T18:27:43.503Z,52.80
2019-03-30T18:30:13.740Z,53.50
2019-03-30T18:32:44.994Z,54.40
2019-03-30T18:35:14.443Z,54.90
2019-03-30T18:37:44.227Z,56.20
2019-03-30T18:40:26.967Z,57.10
2019-03-30T18:42:56.583Z,58.80
2019-03-30T18:45:27.643Z,59.40
2019-03-30T18:48:10.255Z,61.50
2019-03-30T18:50:41.383Z,62.70
2019-03-30T18:53:13.648Z,62.30
2019-03-30T18:55:42.976Z,62.20
2019-03-30T18:58:12.380Z,64.50
2019-03-30T19:00:41.691Z,64.80
2019-03-30T19:03:11.097Z,65.00
2019-03-30T19:05:40.486Z,65.90
2019-03-30T19:08:09.856Z,67.50
2019-03-30T19:10:40.873Z,70.40
2019-03-30T19:13:10.250Z,70.30
2019-03-30T19:15:39.543Z,73.90
2019-03-30T19:18:08.846Z,73.80
2019-03-30T19:20:38.234Z,74.60
2019-03-30T19:23:07.549Z,73.20
2019-03-30T19:25:36.950Z,74.40
2019-03-30T19:28:06.314Z,74.00
2019-03-30T19:30:35.676Z,73.90
2019-03-30T19:33:05.255Z,74.90
2019-03-30T19:35:34.541Z,75.20
2019-03-30T19:38:05.134Z,75.20
2019-03-30T19:40:34.503Z,76.30
2019-03-30T19:43:03.972Z,77.00
2019-03-30T19:45:33.291Z,77.70
2019-03-30T19:48:04.713Z,78.60
2019-03-30T19:50:34.225Z,77.90
2019-03-30T19:53:03.668Z,78.70
2019-03-30T19:55:33.566Z,80.60
2019-03-30T19:58:04.898Z,81.50
2019-03-30T20:00:34.326Z,81.20
2019-03-30T20:03:04.796Z,82.80
2019-03-30T20:05:34.406Z,80.80
2019-03-30T20:08:11.975Z,81.70
2019-03-30T20:10:35.706Z,82.10
2019-03-30T20:13:09.052Z,82.10
2019-03-30T20:15:40.250Z,79.60
2019-03-30T20:18:09.935Z,80.00
2019-03-30T20:20:39.849Z,81.60
2019-03-30T20:23:09.243Z,82.80
2019-03-30T20:25:41.489Z,81.50
2019-03-30T20:28:11.856Z,81.80
2019-03-30T20:30:41.295Z,83.80
2019-03-30T20:33:11.575Z,82.70
2019-03-30T20:35:40.987Z,82.70
2019-03-30T20:38:10.381Z,84.00
2019-03-30T20:40:39.828Z,82.10
2019-03-30T20:43:09.219Z,81.80
2019-03-30T20:45:38.581Z,83.40
2019-03-30T20:48:07.982Z,83.80
2019-03-30T20:50:37.654Z,82.70
2019-03-30T20:53:07.050Z,82.00
2019-03-30T20:55:36.516Z,82.10
2019-03-30T20:58:06.055Z,83.40
2019-03-30T21:00:35.369Z,83.50
2019-03-30T21:03:05.173Z,83.50
2019-03-30T21:05:34.553Z,83.00
2019-03-30T21:08:04.114Z,83.80
2019-03-30T21:10:33.438Z,84.60
2019-03-30T21:13:02.696Z,84.80
2019-03-30T21:15:32.090Z,84.90
2019-03-30T21:18:01.439Z,85.90
2019-03-30T21:20:30.820Z,87.20
2019-03-30T21:23:00.106Z,88.00
2019-03-30T21:25:30.907Z,88.00
2019-03-30T21:28:00.342Z,87.40
2019-03-30T21:30:29.711Z,87.20
2019-03-30T21:33:00.044Z,86.90
2019-03-30T21:35:29.438Z,87.70
2019-03-30T21:37:58.888Z,87.80
2019-03-30T21:40:28.274Z,88.20
2019-03-30T21:42:57.936Z,89.20
2019-03-30T21:45:27.302Z,89.40
2019-03-30T21:47:56.668Z,87.70
2019-03-30T21:50:26.109Z,88.30
2019-03-30T21:52:55.429Z,90.50
2019-03-30T21:55:24.738Z,90.40
2019-03-30T21:57:55.018Z,91.10
2019-03-30T22:00:35.358Z,91.10
2019-03-30T22:03:05.093Z,91.60
2019-03-30T22:05:34.755Z,91.70
2019-03-30T22:08:06.427Z,91.90
2019-03-30T22:10:35.935Z,92.10
2019-03-30T22:13:06.772Z,92.10
2019-03-30T22:15:36.204Z,92.50
2019-03-30T22:18:05.786Z,92.10
2019-03-30T22:20:35.494Z,92.30
2019-03-30T22:23:05.012Z,92.70
2019-03-30T22:25:34.852Z,93.10
2019-03-30T22:30:32.886Z,93.40
2019-03-30T22:33:02.317Z,94.00
2019-03-30T22:35:31.635Z,94.30
2019-03-30T22:38:00.983Z,94.20
2019-03-30T22:40:30.357Z,95.10
2019-03-30T22:42:59.662Z,95.00
2019-03-30T22:45:28.986Z,94.80
2019-03-30T22:47:58.443Z,95.10
2019-03-30T22:50:27.758Z,95.30
2019-03-30T22:52:57.065Z,95.40
2019-03-30T22:55:26.651Z,95.40
2019-03-30T22:58:00.283Z,95.80
2019-03-30T23:00:47.496Z,95.90
2019-03-30T23:03:16.791Z,96.40
2019-03-30T23:05:46.138Z,96.40
2019-03-30T23:08:15.486Z,96.90
2019-03-30T23:10:44.800Z,96.90
2019-03-30T23:13:14.106Z,97.10
2019-03-30T23:15:43.458Z,97.00
2019-03-30T23:18:12.929Z,97.20
2019-03-30T23:20:42.344Z,97.50
2019-03-30T23:23:11.734Z,97.60
2019-03-30T23:25:41.046Z,97.60
2019-03-30T23:28:10.413Z,97.70
2019-03-30T23:30:53.243Z,98.60
2019-03-30T23:33:11.886Z,98.60
2019-03-30T23:35:41.209Z,98.60
2019-03-30T23:38:10.564Z,98.50
2019-03-30T23:40:39.856Z,98.40
2019-03-30T23:43:09.179Z,98.50
2019-03-30T23:45:39.926Z,98.60
2019-03-30T23:48:09.320Z,98.50
2019-03-30T23:50:38.807Z,98.90
2019-03-30T23:53:08.217Z,99.00
2019-03-30T23:55:37.589Z,99.00
2019-03-30T23:58:06.926Z,99.40
